Time;durP1;ratioP1;P1;durP2;ratioP2;P2;SDS_P1;SDS_P2;PMS_P1;PMS_P2;Temp;Humidity;BMP_temperature;BMP_pressure;BME280_temperature;BME280_humidity;BME280_pressure;Samples;Min_cycle;Max_cycle;Signal;HPM_P1;HPM_P2
2023/09/29 00:01:52;;;;;;;25.38;18.92;;;;;;;;;;6257907;28;20296;-70
2023/09/29 00:04:56;;;;;;;29.50;19.35;;;;;;;;;;6257211;28;20311;-71
2023/09/29 00:08:00;;;;;;;26.00;19.63;;;;;;;;;;6256845;28;20291;-72
2023/09/29 00:11:04;;;;;;;28.17;19.20;;;;;;;;;;6257974;28;20327;-71
2023/09/29 00:14:08;;;;;;;26.42;19.08;;;;;;;;;;6257029;28;20615;-71
2023/09/29 00:17:13;;;;;;;29.65;19.40;;;;;;;;;;6257812;28;20288;-72
2023/09/29 00:20:23;;;;;;;24.60;19.33;;;;;;;;;;6255445;28;20232;-72
2023/09/29 00:23:28;;;;;;;27.48;19.65;;;;;;;;;;6256702;28;20296;-71
2023/09/29 00:26:32;;;;;;;27.45;19.60;;;;;;;;;;6257898;28;20284;-71
2023/09/29 00:29:36;;;;;;;24.67;19.00;;;;;;;;;;6257805;28;20592;-72
2023/09/29 00:32:46;;;;;;;25.05;19.17;;;;;;;;;;6257769;28;20311;-72
2023/09/29 00:35:51;;;;;;;29.27;19.70;;;;;;;;;;6258151;28;20291;-72
2023/09/29 00:38:55;;;;;;;25.90;18.42;;;;;;;;;;6255385;28;20291;-70
2023/09/29 00:41:59;;;;;;;27.38;19.17;;;;;;;;;;6257472;28;20328;-71
2023/09/29 00:45:05;;;;;;;29.10;19.52;;;;;;;;;;6256150;28;20297;-71
2023/09/29 00:48:12;;;;;;;28.42;18.67;;;;;;;;;;6254959;28;20498;-72
2023/09/29 00:51:17;;;;;;;22.80;18.40;;;;;;;;;;6257142;28;20295;-70
2023/09/29 00:54:22;;;;;;;26.45;18.30;;;;;;;;;;6254203;28;20603;-71
2023/09/29 00:57:27;;;;;;;26.75;19.02;;;;;;;;;;6256161;28;20287;-70
2023/09/29 01:00:31;;;;;;;26.70;18.65;;;;;;;;;;6256822;28;20346;-70
2023/09/29 01:03:36;;;;;;;24.20;17.80;;;;;;;;;;6256249;28;20631;-69
2023/09/29 01:06:40;;;;;;;25.23;18.23;;;;;;;;;;6256043;28;20412;-71
2023/09/29 01:09:44;;;;;;;24.30;18.30;;;;;;;;;;6255977;28;20303;-71
2023/09/29 01:12:48;;;;;;;23.23;17.70;;;;;;;;;;6256422;28;20394;-72
2023/09/29 01:15:53;;;;;;;24.70;17.70;;;;;;;;;;6256831;28;20537;-72
2023/09/29 01:18:59;;;;;;;22.85;17.80;;;;;;;;;;6255994;28;20303;-71
2023/09/29 01:22:04;;;;;;;24.80;17.48;;;;;;;;;;6255046;28;20808;-71
2023/09/29 01:25:10;;;;;;;24.42;18.05;;;;;;;;;;6256470;28;20292;-72
2023/09/29 01:28:14;;;;;;;24.17;18.48;;;;;;;;;;6254602;28;20595;-71
2023/09/29 01:31:18;;;;;;;22.58;17.02;;;;;;;;;;6271721;28;20299;-71
2023/09/29 01:34:24;;;;;;;28.23;17.60;;;;;;;;;;6256006;28;20299;-71
2023/09/29 01:37:28;;;;;;;24.23;16.10;;;;;;;;;;6271126;28;20300;-71
2023/09/29 01:40:33;;;;;;;25.33;18.58;;;;;;;;;;6254578;28;20299;-73
2023/09/29 01:43:37;;;;;;;22.17;16.90;;;;;;;;;;6255942;28;20331;-70
2023/09/29 01:46:41;;;;;;;23.85;17.20;;;;;;;;;;6256160;28;20288;-72
2023/09/29 01:49:44;;;;;;;19.75;15.90;;;;;;;;;;6253778;28;20299;-71
2023/09/29 01:52:49;;;;;;;21.20;16.73;;;;;;;;;;6274686;28;20290;-70
2023/09/29 01:55:54;;;;;;;24.63;16.85;;;;;;;;;;6279274;28;20299;-71
2023/09/29 01:58:59;;;;;;;21.00;17.00;;;;;;;;;;6295767;28;20588;-70
2023/09/29 02:02:03;;;;;;;20.52;16.55;;;;;;;;;;6278666;28;20306;-72
2023/09/29 02:05:09;;;;;;;19.48;16.17;;;;;;;;;;6295725;28;20595;-71
2023/09/29 02:08:13;;;;;;;22.00;15.88;;;;;;;;;;6281286;28;20303;-70
2023/09/29 02:11:18;;;;;;;20.58;15.77;;;;;;;;;;6269770;28;20291;-71
2023/09/29 02:14:22;;;;;;;19.15;16.63;;;;;;;;;;6259764;28;20287;-70
2023/09/29 02:17:26;;;;;;;21.33;16.00;;;;;;;;;;6258425;28;20307;-71
2023/09/29 02:20:29;;;;;;;21.65;15.85;;;;;;;;;;6275627;28;20299;-72
2023/09/29 02:23:35;;;;;;;20.13;16.02;;;;;;;;;;6274899;28;20466;-72
2023/09/29 02:26:41;;;;;;;23.52;16.85;;;;;;;;;;6260368;28;20319;-71
2023/09/29 02:29:45;;;;;;;22.50;16.40;;;;;;;;;;6259576;28;20466;-71
2023/09/29 02:32:52;;;;;;;19.48;15.10;;;;;;;;;;6259576;28;20610;-70
2023/09/29 02:35:58;;;;;;;22.60;15.88;;;;;;;;;;6259944;28;20299;-71
2023/09/29 02:39:03;;;;;;;21.60;15.77;;;;;;;;;;6272961;28;20319;-71
2023/09/29 02:42:09;;;;;;;21.58;16.00;;;;;;;;;;6235103;28;20469;-70
2023/09/29 02:45:13;;;;;;;21.67;15.48;;;;;;;;;;6249674;28;20300;-72
2023/09/29 02:48:17;;;;;;;23.92;15.77;;;;;;;;;;6233591;28;20593;-70
2023/09/29 02:51:22;;;;;;;25.33;16.05;;;;;;;;;;6235108;28;20320;-70
2023/09/29 02:54:26;;;;;;;22.05;15.18;;;;;;;;;;6241797;28;20551;-70
2023/09/29 02:57:31;;;;;;;20.85;15.55;;;;;;;;;;6210011;28;20324;-70
2023/09/29 03:00:35;;;;;;;25.92;16.15;;;;;;;;;;6212864;28;20466;-71
2023/09/29 03:03:41;;;;;;;22.80;16.42;;;;;;;;;;6255672;28;20312;-71
2023/09/29 03:06:45;;;;;;;19.98;15.68;;;;;;;;;;6259614;28;20552;-72
2023/09/29 03:09:50;;;;;;;20.98;16.55;;;;;;;;;;6257895;28;20311;-72
2023/09/29 03:12:56;;;;;;;23.63;15.48;;;;;;;;;;6257713;28;20295;-71
2023/09/29 03:16:02;;;;;;;23.15;14.93;;;;;;;;;;6259008;28;20300;-73
2023/09/29 03:19:08;;;;;;;20.85;15.82;;;;;;;;;;6258342;28;20300;-71
2023/09/29 03:22:13;;;;;;;20.30;15.32;;;;;;;;;;6259048;28;20480;-70
2023/09/29 03:25:18;;;;;;;27.00;15.55;;;;;;;;;;6258377;28;20300;-70
2023/09/29 03:28:25;;;;;;;21.88;15.38;;;;;;;;;;6258320;28;20307;-70
2023/09/29 03:31:29;;;;;;;20.90;14.70;;;;;;;;;;6273534;28;20491;-72
2023/09/29 03:34:33;;;;;;;18.45;14.82;;;;;;;;;;6257959;28;20494;-73
2023/09/29 03:37:38;;;;;;;20.02;15.10;;;;;;;;;;6268323;28;20407;-71
2023/09/29 03:40:44;;;;;;;23.42;16.30;;;;;;;;;;6255858;28;20303;-73
2023/09/29 03:43:49;;;;;;;22.63;14.90;;;;;;;;;;6257919;28;20304;-69
2023/09/29 03:46:53;;;;;;;17.17;14.48;;;;;;;;;;6258680;28;20304;-70
2023/09/29 03:49:57;;;;;;;22.83;15.20;;;;;;;;;;6257922;28;20303;-71
2023/09/29 03:53:02;;;;;;;22.83;14.30;;;;;;;;;;6256533;28;20296;-70
2023/09/29 03:56:05;;;;;;;25.05;14.80;;;;;;;;;;6258327;28;20303;-71
2023/09/29 03:59:12;;;;;;;21.10;14.50;;;;;;;;;;6257672;28;20303;-72
2023/09/29 04:02:17;;;;;;;21.48;14.40;;;;;;;;;;6258176;28;20287;-71
2023/09/29 04:05:21;;;;;;;19.33;14.60;;;;;;;;;;6257828;28;20371;-70
2023/09/29 04:08:25;;;;;;;21.00;15.15;;;;;;;;;;6257989;28;20318;-72
2023/09/29 04:11:29;;;;;;;21.73;14.98;;;;;;;;;;6257933;28;20319;-70
2023/09/29 04:14:34;;;;;;;21.83;14.13;;;;;;;;;;6257694;28;20303;-72
2023/09/29 04:17:38;;;;;;;23.83;14.35;;;;;;;;;;6257298;28;20299;-72
2023/09/29 04:20:42;;;;;;;29.05;15.20;;;;;;;;;;6258029;28;20283;-70
2023/09/29 04:23:46;;;;;;;25.48;15.80;;;;;;;;;;6257166;28;20243;-71
2023/09/29 04:26:51;;;;;;;21.00;14.75;;;;;;;;;;6258116;28;20292;-70
2023/09/29 04:29:56;;;;;;;17.10;14.45;;;;;;;;;;6256961;28;20322;-71
2023/09/29 04:33:00;;;;;;;23.65;14.93;;;;;;;;;;6256188;28;20311;-71
2023/09/29 04:36:04;;;;;;;21.02;14.88;;;;;;;;;;6257548;28;20304;-72
2023/09/29 04:39:08;;;;;;;22.85;15.55;;;;;;;;;;6255105;28;20614;-70
2023/09/29 04:42:14;;;;;;;24.23;16.13;;;;;;;;;;6257307;28;20333;-71
2023/09/29 04:45:19;;;;;;;26.48;15.13;;;;;;;;;;6256621;28;20304;-70
2023/09/29 04:48:23;;;;;;;22.33;14.90;;;;;;;;;;6256589;28;20303;-71
2023/09/29 04:51:27;;;;;;;24.40;15.52;;;;;;;;;;6257125;28;20303;-71
2023/09/29 04:54:31;;;;;;;29.45;15.77;;;;;;;;;;6256802;28;20308;-71
2023/09/29 04:57:35;;;;;;;22.65;16.05;;;;;;;;;;6280052;28;20607;-71
2023/09/29 05:00:41;;;;;;;25.05;15.77;;;;;;;;;;6280704;28;20291;-73
2023/09/29 05:03:44;;;;;;;26.38;15.75;;;;;;;;;;6281536;28;20299;-71
2023/09/29 05:06:48;;;;;;;23.00;15.30;;;;;;;;;;6282010;28;20243;-71
2023/09/29 05:09:52;;;;;;;22.15;16.75;;;;;;;;;;6277669;28;20304;-70
2023/09/29 05:12:56;;;;;;;26.92;15.38;;;;;;;;;;6256726;28;20319;-72
2023/09/29 05:16:01;;;;;;;21.02;16.13;;;;;;;;;;6256976;28;20314;-72
2023/09/29 05:19:05;;;;;;;24.75;15.32;;;;;;;;;;6256785;28;20295;-70
2023/09/29 05:22:09;;;;;;;18.27;14.00;;;;;;;;;;6272109;28;20588;-71
2023/09/29 05:25:13;;;;;;;22.35;14.98;;;;;;;;;;6256474;28;20299;-71
2023/09/29 05:28:17;;;;;;;17.17;13.68;;;;;;;;;;6256566;28;20335;-71
2023/09/29 05:31:22;;;;;;;22.80;14.88;;;;;;;;;;6256713;28;20611;-71
2023/09/29 05:34:26;;;;;;;25.40;14.82;;;;;;;;;;6256109;28;20319;-71
2023/09/29 05:37:31;;;;;;;20.52;14.60;;;;;;;;;;6256764;28;20299;-71
2023/09/29 05:40:36;;;;;;;21.60;14.35;;;;;;;;;;6254442;28;20296;-71
2023/09/29 05:43:40;;;;;;;21.33;14.75;;;;;;;;;;6257810;28;20453;-72
2023/09/29 05:46:45;;;;;;;19.63;14.02;;;;;;;;;;6261721;28;20639;-71
2023/09/29 05:49:49;;;;;;;18.52;13.60;;;;;;;;;;6261166;28;20296;-71
2023/09/29 05:52:59;;;;;;;19.13;13.75;;;;;;;;;;6261158;28;20354;-70
2023/09/29 05:56:13;;;;;;;18.50;13.68;;;;;;;;;;6261405;28;20296;-73
2023/09/29 05:59:17;;;;;;;20.58;13.63;;;;;;;;;;6260746;28;20300;-70
2023/09/29 06:02:22;;;;;;;17.48;13.85;;;;;;;;;;6261575;28;20300;-70
2023/09/29 06:05:26;;;;;;;18.23;13.65;;;;;;;;;;6260523;28;20296;-71
2023/09/29 06:08:30;;;;;;;18.75;13.88;;;;;;;;;;6260995;28;20307;-70
2023/09/29 06:11:54;;;;;;;16.10;12.85;;;;;;;;;;6261195;28;20323;-70
2023/09/29 06:14:58;;;;;;;15.90;13.27;;;;;;;;;;6260510;28;20595;-71
2023/09/29 06:18:04;;;;;;;16.55;12.63;;;;;;;;;;6260436;28;20295;-71
2023/09/29 06:21:08;;;;;;;19.35;13.07;;;;;;;;;;6260708;28;20287;-71
2023/09/29 06:24:12;;;;;;;21.90;13.70;;;;;;;;;;6260131;28;20292;-71
2023/09/29 06:27:16;;;;;;;23.38;13.50;;;;;;;;;;6260630;28;20296;-71
2023/09/29 06:30:20;;;;;;;18.83;12.52;;;;;;;;;;6260212;28;20360;-72
2023/09/29 06:33:25;;;;;;;18.10;12.57;;;;;;;;;;6259662;28;20308;-71
2023/09/29 06:36:29;;;;;;;17.65;12.55;;;;;;;;;;6260470;28;20303;-71
2023/09/29 06:39:33;;;;;;;21.00;12.80;;;;;;;;;;6258391;28;20342;-71
2023/09/29 06:42:37;;;;;;;22.85;12.65;;;;;;;;;;6259350;28;20275;-70
2023/09/29 06:45:41;;;;;;;16.58;12.40;;;;;;;;;;6258993;28;20295;-70
2023/09/29 06:49:05;;;;;;;19.73;12.50;;;;;;;;;;6259749;28;20492;-69
2023/09/29 06:52:09;;;;;;;19.77;11.23;;;;;;;;;;6260076;28;20467;-69
2023/09/29 06:55:13;;;;;;;22.05;12.10;;;;;;;;;;6259020;28;20307;-72
2023/09/29 06:58:17;;;;;;;15.02;12.20;;;;;;;;;;6259187;28;20307;-71
2023/09/29 07:01:21;;;;;;;15.02;11.57;;;;;;;;;;6259670;28;20604;-71
2023/09/29 07:04:26;;;;;;;21.50;12.30;;;;;;;;;;6259031;28;20514;-70
2023/09/29 07:07:30;;;;;;;15.77;11.48;;;;;;;;;;6259622;28;20515;-72
2023/09/29 07:10:34;;;;;;;18.55;11.85;;;;;;;;;;6259292;28;20295;-70
2023/09/29 07:13:38;;;;;;;17.58;12.10;;;;;;;;;;6259321;28;20300;-71
2023/09/29 07:16:42;;;;;;;19.00;11.23;;;;;;;;;;6260090;28;20323;-70
2023/09/29 07:19:48;;;;;;;15.38;10.70;;;;;;;;;;6258971;28;20299;-71
2023/09/29 07:22:52;;;;;;;18.55;11.35;;;;;;;;;;6258744;28;20303;-70
2023/09/29 07:25:56;;;;;;;17.00;11.25;;;;;;;;;;6274449;28;20295;-69
2023/09/29 07:29:01;;;;;;;14.27;9.98;;;;;;;;;;6258721;28;20327;-71
2023/09/29 07:32:05;;;;;;;10.57;9.20;;;;;;;;;;6259227;28;20291;-71
2023/09/29 07:35:11;;;;;;;11.50;9.48;;;;;;;;;;6258512;28;20355;-71
2023/09/29 07:38:17;;;;;;;11.23;9.23;;;;;;;;;;6254090;28;20305;-71
2023/09/29 07:41:20;;;;;;;14.43;9.38;;;;;;;;;;6251179;28;20296;-72
2023/09/29 07:44:24;;;;;;;14.38;9.65;;;;;;;;;;6258351;28;20299;-71
2023/09/29 07:47:28;;;;;;;20.23;10.35;;;;;;;;;;6258710;28;20304;-72
2023/09/29 07:50:34;;;;;;;16.90;9.80;;;;;;;;;;6256283;28;20481;-71
2023/09/29 07:53:38;;;;;;;20.88;10.27;;;;;;;;;;6257964;28;20296;-72
2023/09/29 07:56:47;;;;;;;19.63;9.52;;;;;;;;;;6258399;28;20315;-71
2023/09/29 07:59:52;;;;;;;21.35;9.90;;;;;;;;;;6257816;28;20311;-71
2023/09/29 08:02:56;;;;;;;17.77;9.55;;;;;;;;;;6255671;28;20299;-70
2023/09/29 08:06:01;;;;;;;24.35;9.07;;;;;;;;;;6257491;28;20292;-70
2023/09/29 08:09:06;;;;;;;19.45;9.82;;;;;;;;;;6257831;28;20300;-70
2023/09/29 08:12:10;;;;;;;12.13;9.07;;;;;;;;;;6258118;28;20296;-70
2023/09/29 08:15:14;;;;;;;18.38;8.68;;;;;;;;;;6257879;28;20295;-72
2023/09/29 08:18:18;;;;;;;10.35;8.38;;;;;;;;;;6257677;28;20324;-71
2023/09/29 08:21:24;;;;;;;11.93;9.00;;;;;;;;;;6257816;28;20304;-70
2023/09/29 08:24:28;;;;;;;15.32;8.52;;;;;;;;;;6257575;28;20488;-71
2023/09/29 08:27:31;;;;;;;11.95;8.40;;;;;;;;;;6257715;28;20327;-72
2023/09/29 08:30:35;;;;;;;13.23;8.02;;;;;;;;;;6257383;28;20303;-71
2023/09/29 08:33:39;;;;;;;16.38;8.45;;;;;;;;;;6246925;28;20288;-71
2023/09/29 08:36:55;;;;;;;18.35;8.18;;;;;;;;;;6257781;28;20256;-71
2023/09/29 08:39:58;;;;;;;13.40;8.05;;;;;;;;;;6255423;28;20300;-71
2023/09/29 08:43:04;;;;;;;13.95;7.95;;;;;;;;;;6257449;28;20295;-72
2023/09/29 08:46:10;;;;;;;20.52;7.53;;;;;;;;;;6257590;28;20288;-71
2023/09/29 08:49:16;;;;;;;14.27;7.28;;;;;;;;;;6257396;28;20303;-70
2023/09/29 08:52:22;;;;;;;22.05;8.32;;;;;;;;;;6257505;28;20307;-69
2023/09/29 08:55:27;;;;;;;12.95;7.20;;;;;;;;;;6257239;28;20299;-70
2023/09/29 08:58:32;;;;;;;13.43;6.82;;;;;;;;;;6256599;28;20295;-70
2023/09/29 09:01:35;;;;;;;12.75;6.93;;;;;;;;;;6257125;28;20315;-72
2023/09/29 09:04:39;;;;;;;11.40;6.75;;;;;;;;;;6256965;28;20303;-72
2023/09/29 09:07:44;;;;;;;8.95;6.30;;;;;;;;;;6254814;28;20295;-73
2023/09/29 09:10:48;;;;;;;15.88;6.43;;;;;;;;;;6257058;28;20307;-70
2023/09/29 09:13:58;;;;;;;15.77;6.07;;;;;;;;;;6256725;28;20306;-71
2023/09/29 09:17:03;;;;;;;12.70;6.13;;;;;;;;;;6257993;28;20311;-71
2023/09/29 09:20:09;;;;;;;11.85;5.25;;;;;;;;;;6261817;28;20307;-70
2023/09/29 09:23:14;;;;;;;7.93;5.07;;;;;;;;;;6261880;28;20308;-71
2023/09/29 09:26:19;;;;;;;8.95;5.50;;;;;;;;;;6261992;28;20295;-70
2023/09/29 09:29:23;;;;;;;13.18;6.07;;;;;;;;;;6261472;28;20307;-72
2023/09/29 09:32:27;;;;;;;8.45;5.10;;;;;;;;;;6261749;28;20299;-69
2023/09/29 09:35:32;;;;;;;11.68;5.35;;;;;;;;;;6261299;28;20442;-70
2023/09/29 09:38:37;;;;;;;11.68;4.72;;;;;;;;;;6261614;28;20287;-71
2023/09/29 09:41:42;;;;;;;15.38;5.60;;;;;;;;;;6259407;28;20295;-71
2023/09/29 09:44:46;;;;;;;7.18;4.75;;;;;;;;;;6261008;28;20303;-71
2023/09/29 09:47:51;;;;;;;12.85;4.38;;;;;;;;;;6260734;28;20310;-71
2023/09/29 09:50:56;;;;;;;8.82;4.38;;;;;;;;;;6261668;28;20319;-70
2023/09/29 09:54:03;;;;;;;8.55;4.28;;;;;;;;;;6260793;28;20371;-71
2023/09/29 09:57:11;;;;;;;7.53;3.97;;;;;;;;;;6261278;28;20301;-72
2023/09/29 10:00:15;;;;;;;5.68;4.35;;;;;;;;;;6260951;28;20304;-72
2023/09/29 10:03:20;;;;;;;5.07;4.03;;;;;;;;;;6260636;28;20296;-69
2023/09/29 10:06:25;;;;;;;9.60;4.32;;;;;;;;;;6261128;28;20479;-72
2023/09/29 10:09:41;;;;;;;4.32;3.88;;;;;;;;;;6260637;28;20464;-74
2023/09/29 10:12:54;;;;;;;10.23;3.85;;;;;;;;;;6260143;28;20459;-71
2023/09/29 10:16:01;;;;;;;12.02;3.88;;;;;;;;;;6260777;28;20303;-73
2023/09/29 10:19:10;;;;;;;13.65;4.35;;;;;;;;;;6260407;28;20325;-73
2023/09/29 10:22:22;;;;;;;8.45;3.60;;;;;;;;;;6260608;28;20655;-69
2023/09/29 10:25:28;;;;;;;6.30;3.63;;;;;;;;;;6258446;28;20503;-69
2023/09/29 10:28:32;;;;;;;11.60;4.05;;;;;;;;;;6259513;28;20423;-69
2023/09/29 10:31:36;;;;;;;4.85;3.58;;;;;;;;;;6260529;28;20291;-70
2023/09/29 10:34:40;;;;;;;7.63;3.75;;;;;;;;;;6250555;28;20303;-68
2023/09/29 10:37:45;;;;;;;6.38;3.47;;;;;;;;;;6259750;28;20307;-73
2023/09/29 10:40:50;;;;;;;9.80;3.58;;;;;;;;;;6258481;28;20300;-71
2023/09/29 10:44:01;;;;;;;8.13;3.20;;;;;;;;;;6260011;28;20300;-70
2023/09/29 10:47:05;;;;;;;6.15;3.33;;;;;;;;;;6260104;28;20317;-70
2023/09/29 10:50:10;;;;;;;7.32;2.58;;;;;;;;;;6259855;28;20630;-72
2023/09/29 10:53:14;;;;;;;8.45;3.50;;;;;;;;;;6259947;28;20296;-71
2023/09/29 10:56:20;;;;;;;3.88;3.45;;;;;;;;;;6260190;28;20477;-71
2023/09/29 10:59:24;;;;;;;9.98;3.17;;;;;;;;;;6259836;28;20450;-70
2023/09/29 11:02:30;;;;;;;15.18;3.65;;;;;;;;;;6260392;28;20295;-71
2023/09/29 11:05:36;;;;;;;5.55;3.38;;;;;;;;;;6259588;28;20299;-70
2023/09/29 11:08:43;;;;;;;8.45;3.03;;;;;;;;;;6259417;28;20315;-71
2023/09/29 11:11:48;;;;;;;8.82;3.15;;;;;;;;;;6259235;28;20296;-70
2023/09/29 11:14:53;;;;;;;8.70;3.60;;;;;;;;;;6259232;28;20608;-71
2023/09/29 11:17:56;;;;;;;7.05;3.13;;;;;;;;;;6259216;28;20436;-72
2023/09/29 11:21:05;;;;;;;11.73;3.55;;;;;;;;;;6259784;28;20319;-70
2023/09/29 11:24:10;;;;;;;10.68;3.42;;;;;;;;;;6257701;28;20504;-73
2023/09/29 11:27:15;;;;;;;9.45;3.15;;;;;;;;;;6259566;28;20496;-71
2023/09/29 11:30:24;;;;;;;7.28;2.72;;;;;;;;;;6258803;28;20307;-70
2023/09/29 11:33:28;;;;;;;8.57;3.13;;;;;;;;;;6258704;28;20300;-70
2023/09/29 11:36:32;;;;;;;8.57;2.95;;;;;;;;;;6259188;28;20304;-71
2023/09/29 11:39:36;;;;;;;11.90;3.42;;;;;;;;;;6256224;28;20299;-71
2023/09/29 11:42:44;;;;;;;9.68;2.92;;;;;;;;;;6258904;28;20260;-71
2023/09/29 11:45:48;;;;;;;13.20;3.15;;;;;;;;;;6259164;28;20244;-70
2023/09/29 11:48:53;;;;;;;6.80;3.25;;;;;;;;;;6258828;28;20327;-70
2023/09/29 11:51:56;;;;;;;10.30;3.00;;;;;;;;;;6258962;28;20304;-71
2023/09/29 11:55:00;;;;;;;6.95;3.20;;;;;;;;;;6258315;28;20296;-72
2023/09/29 11:58:07;;;;;;;5.72;2.95;;;;;;;;;;6258049;28;20295;-71
2023/09/29 12:01:12;;;;;;;8.25;3.00;;;;;;;;;;6258685;28;20304;-70
2023/09/29 12:04:16;;;;;;;8.50;2.95;;;;;;;;;;6258177;28;20295;-70
2023/09/29 12:07:19;;;;;;;6.97;3.40;;;;;;;;;;6258222;28;20296;-71
2023/09/29 12:10:23;;;;;;;8.18;2.60;;;;;;;;;;6257807;28;20299;-70
2023/09/29 12:13:29;;;;;;;11.00;3.10;;;;;;;;;;6257748;28;20287;-71
2023/09/29 12:16:33;;;;;;;7.30;2.67;;;;;;;;;;6258382;28;20330;-70
2023/09/29 12:19:38;;;;;;;10.02;2.72;;;;;;;;;;6257702;28;20498;-70
2023/09/29 12:22:44;;;;;;;9.70;3.10;;;;;;;;;;6257374;28;20296;-70
2023/09/29 12:25:47;;;;;;;5.43;3.00;;;;;;;;;;6257860;28;20296;-70
2023/09/29 12:28:53;;;;;;;9.50;3.00;;;;;;;;;;6257242;28;20307;-69
2023/09/29 12:31:57;;;;;;;7.43;2.55;;;;;;;;;;6257827;28;20308;-70
2023/09/29 12:35:04;;;;;;;8.85;2.65;;;;;;;;;;6256790;28;20299;-69
2023/09/29 12:38:08;;;;;;;15.43;2.88;;;;;;;;;;6257231;28;20416;-70
2023/09/29 12:41:13;;;;;;;10.38;3.05;;;;;;;;;;6255640;28;20295;-69
2023/09/29 12:44:18;;;;;;;7.30;3.20;;;;;;;;;;6257032;28;20303;-72
2023/09/29 12:47:23;;;;;;;6.47;3.25;;;;;;;;;;6257313;28;20295;-71
2023/09/29 12:50:27;;;;;;;9.48;2.80;;;;;;;;;;6257132;28;20299;-72
2023/09/29 12:53:31;;;;;;;8.30;2.60;;;;;;;;;;6256633;28;20283;-70
2023/09/29 12:56:35;;;;;;;5.50;2.80;;;;;;;;;;6257453;28;20308;-71
2023/09/29 12:59:43;;;;;;;9.65;2.85;;;;;;;;;;6257393;28;20303;-72
2023/09/29 13:02:51;;;;;;;9.52;3.42;;;;;;;;;;6255357;28;20300;-70
2023/09/29 13:05:59;;;;;;;7.70;2.45;;;;;;;;;;6257419;28;20608;-71
2023/09/29 13:09:04;;;;;;;5.68;3.00;;;;;;;;;;6256650;28;20295;-72
2023/09/29 13:12:08;;;;;;;5.00;2.45;;;;;;;;;;6269519;28;20466;-70
2023/09/29 13:15:33;;;;;;;6.10;2.88;;;;;;;;;;6233325;28;20300;-70
2023/09/29 13:18:36;;;;;;;13.45;4.00;;;;;;;;;;6231895;28;20609;-71
2023/09/29 13:21:41;;;;;;;13.20;3.33;;;;;;;;;;6232683;28;20277;-71
2023/09/29 13:24:46;;;;;;;8.10;3.15;;;;;;;;;;6232420;28;20308;-72
2023/09/29 13:27:50;;;;;;;7.32;3.13;;;;;;;;;;6232051;28;20253;-72
2023/09/29 13:30:57;;;;;;;7.82;2.85;;;;;;;;;;6233111;28;20261;-72
2023/09/29 13:34:01;;;;;;;7.30;3.20;;;;;;;;;;6231647;28;20304;-72
2023/09/29 13:37:05;;;;;;;8.20;2.75;;;;;;;;;;6232548;28;20591;-72
2023/09/29 13:40:10;;;;;;;7.18;2.65;;;;;;;;;;6238989;28;20294;-71
2023/09/29 13:43:15;;;;;;;7.28;2.60;;;;;;;;;;6281236;28;20294;-71
2023/09/29 13:46:20;;;;;;;8.77;2.92;;;;;;;;;;6296807;28;20299;-71
2023/09/29 13:49:24;;;;;;;8.40;2.72;;;;;;;;;;6279908;28;20483;-70
2023/09/29 13:52:28;;;;;;;8.05;2.70;;;;;;;;;;6282150;28;20664;-70
2023/09/29 13:55:32;;;;;;;8.13;2.85;;;;;;;;;;6279302;28;20299;-70
2023/09/29 13:58:36;;;;;;;9.02;3.53;;;;;;;;;;6281111;28;20287;-71
2023/09/29 14:01:42;;;;;;;3.75;2.70;;;;;;;;;;6281435;28;20303;-70
2023/09/29 14:04:46;;;;;;;11.80;3.20;;;;;;;;;;6282641;28;20311;-70
2023/09/29 14:07:52;;;;;;;14.10;2.90;;;;;;;;;;6285254;28;20295;-71
2023/09/29 14:10:56;;;;;;;10.45;3.10;;;;;;;;;;6272939;28;20303;-71
2023/09/29 14:14:00;;;;;;;5.43;3.30;;;;;;;;;;6275495;28;20466;-70
2023/09/29 14:17:06;;;;;;;12.85;3.47;;;;;;;;;;6260534;28;20315;-71
2023/09/29 14:20:12;;;;;;;11.82;3.22;;;;;;;;;;6260186;28;20303;-72
2023/09/29 14:23:15;;;;;;;6.32;2.95;;;;;;;;;;6260083;28;20287;-71
2023/09/29 14:26:19;;;;;;;6.05;3.25;;;;;;;;;;6260395;28;20315;-70
2023/09/29 14:29:23;;;;;;;17.15;3.60;;;;;;;;;;6259703;28;20299;-71
2023/09/29 14:32:28;;;;;;;7.05;2.88;;;;;;;;;;6259932;28;20299;-71
2023/09/29 14:35:33;;;;;;;9.05;2.97;;;;;;;;;;6259644;28;20300;-70
2023/09/29 14:38:51;;;;;;;5.80;3.15;;;;;;;;;;6258392;28;20291;-77
2023/09/29 14:41:55;;;;;;;6.00;2.78;;;;;;;;;;6260284;28;20603;-71
2023/09/29 14:44:59;;;;;;;8.73;3.05;;;;;;;;;;6259457;28;20395;-70
2023/09/29 14:48:05;;;;;;;9.40;3.67;;;;;;;;;;6259436;28;20315;-69
2023/09/29 14:51:10;;;;;;;7.57;3.30;;;;;;;;;;6257978;28;20240;-74
2023/09/29 14:54:14;;;;;;;7.68;3.33;;;;;;;;;;6259613;28;20624;-70
2023/09/29 14:57:18;;;;;;;5.80;3.13;;;;;;;;;;6259965;28;20299;-70
2023/09/29 15:00:22;;;;;;;5.78;3.13;;;;;;;;;;6259381;28;20588;-70
2023/09/29 15:03:31;;;;;;;9.77;3.22;;;;;;;;;;6259402;28;20283;-70
2023/09/29 15:06:35;;;;;;;6.82;3.22;;;;;;;;;;6259492;28;20291;-69
2023/09/29 15:09:39;;;;;;;10.23;3.15;;;;;;;;;;6240957;28;20304;-70
2023/09/29 15:12:43;;;;;;;4.72;3.25;;;;;;;;;;6210777;28;20253;-71
2023/09/29 15:15:47;;;;;;;8.70;3.50;;;;;;;;;;6249290;28;20279;-70
2023/09/29 15:18:53;;;;;;;8.02;3.28;;;;;;;;;;6234094;28;20307;-70
2023/09/29 15:21:57;;;;;;;12.38;3.90;;;;;;;;;;6234125;28;20467;-71
2023/09/29 15:25:01;;;;;;;8.65;3.30;;;;;;;;;;6234000;28;20296;-70
2023/09/29 15:28:06;;;;;;;7.68;3.40;;;;;;;;;;6233893;28;20304;-72
2023/09/29 15:31:10;;;;;;;8.68;3.15;;;;;;;;;;6234631;28;20292;-69
2023/09/29 15:34:16;;;;;;;8.18;3.63;;;;;;;;;;6233609;28;20292;-70
2023/09/29 15:37:19;;;;;;;13.75;3.90;;;;;;;;;;6234335;28;20296;-71
2023/09/29 15:40:23;;;;;;;12.88;3.40;;;;;;;;;;6243195;28;20342;-70
2023/09/29 15:43:27;;;;;;;6.70;3.70;;;;;;;;;;6258408;28;20288;-70
2023/09/29 15:46:31;;;;;;;10.60;4.10;;;;;;;;;;6250995;28;20300;-70
2023/09/29 15:49:40;;;;;;;7.32;3.75;;;;;;;;;;6241705;28;20291;-70
2023/09/29 15:52:44;;;;;;;9.60;4.10;;;;;;;;;;6257936;28;20470;-70
2023/09/29 15:55:48;;;;;;;13.82;5.78;;;;;;;;;;6258242;28;20531;-71
2023/09/29 15:58:51;;;;;;;17.05;5.28;;;;;;;;;;6257822;28;20283;-70
2023/09/29 16:01:56;;;;;;;15.50;5.25;;;;;;;;;;6247817;28;20300;-71
2023/09/29 16:05:01;;;;;;;12.02;4.88;;;;;;;;;;6244620;28;20287;-70
2023/09/29 16:08:06;;;;;;;14.98;4.80;;;;;;;;;;6257434;28;20295;-71
2023/09/29 16:11:10;;;;;;;17.90;5.55;;;;;;;;;;6257779;28;20303;-70
2023/09/29 16:14:14;;;;;;;16.77;5.50;;;;;;;;;;6257405;28;20333;-71
2023/09/29 16:17:18;;;;;;;13.43;5.15;;;;;;;;;;6257981;28;20306;-71
2023/09/29 16:20:23;;;;;;;9.77;4.97;;;;;;;;;;6257292;28;20451;-71
2023/09/29 16:23:27;;;;;;;11.85;4.22;;;;;;;;;;6257057;28;20291;-70
2023/09/29 16:26:31;;;;;;;7.75;4.15;;;;;;;;;;6257234;28;20299;-71
2023/09/29 16:29:37;;;;;;;11.38;4.20;;;;;;;;;;6256924;28;20305;-70
2023/09/29 16:32:41;;;;;;;10.25;3.88;;;;;;;;;;6257062;28;20304;-70
2023/09/29 16:35:46;;;;;;;10.80;4.20;;;;;;;;;;6257217;28;20469;-70
2023/09/29 16:38:51;;;;;;;13.93;4.65;;;;;;;;;;6256287;28;20289;-75
2023/09/29 16:41:55;;;;;;;9.27;4.35;;;;;;;;;;6257198;28;20652;-71
2023/09/29 16:44:59;;;;;;;14.00;4.65;;;;;;;;;;6256853;28;20311;-70
2023/09/29 16:48:03;;;;;;;12.63;5.30;;;;;;;;;;6256942;28;20292;-69
2023/09/29 16:51:12;;;;;;;17.08;5.53;;;;;;;;;;6257264;28;20580;-72
2023/09/29 16:54:18;;;;;;;21.42;5.20;;;;;;;;;;6256679;28;20475;-71
2023/09/29 16:57:23;;;;;;;17.73;6.03;;;;;;;;;;6257213;28;20295;-71
2023/09/29 17:00:31;;;;;;;16.52;5.70;;;;;;;;;;6256731;28;20295;-70
2023/09/29 17:03:36;;;;;;;20.02;6.78;;;;;;;;;;6254850;28;20307;-72
2023/09/29 17:06:42;;;;;;;23.40;7.70;;;;;;;;;;6256973;28;20256;-68
2023/09/29 17:09:46;;;;;;;18.30;6.60;;;;;;;;;;6256060;28;20327;-69
2023/09/29 17:12:50;;;;;;;13.15;5.50;;;;;;;;;;6256236;28;20240;-70
2023/09/29 17:15:54;;;;;;;18.95;6.05;;;;;;;;;;6256668;28;20245;-70
2023/09/29 17:18:57;;;;;;;15.48;6.47;;;;;;;;;;6254540;28;20287;-69
2023/09/29 17:22:02;;;;;;;15.80;6.60;;;;;;;;;;6255028;28;20588;-70
2023/09/29 17:25:07;;;;;;;15.43;6.38;;;;;;;;;;6256336;28;20299;-70
2023/09/29 17:28:13;;;;;;;20.92;7.25;;;;;;;;;;6256239;28;20465;-70
2023/09/29 17:31:17;;;;;;;24.98;8.85;;;;;;;;;;6256470;28;20304;-71
2023/09/29 17:34:20;;;;;;;25.20;8.27;;;;;;;;;;6256052;28;20303;-72
2023/09/29 17:37:26;;;;;;;23.63;8.35;;;;;;;;;;6256792;28;20308;-70
2023/09/29 17:40:29;;;;;;;30.05;7.20;;;;;;;;;;6258908;28;20568;-69
2023/09/29 17:43:33;;;;;;;22.60;7.78;;;;;;;;;;6258976;28;20311;-70
2023/09/29 17:46:38;;;;;;;19.25;7.30;;;;;;;;;;6261033;28;20342;-70
2023/09/29 17:49:42;;;;;;;16.17;6.68;;;;;;;;;;6260466;28;20311;-71
2023/09/29 17:52:48;;;;;;;22.25;8.75;;;;;;;;;;6260431;28;20371;-69
2023/09/29 17:55:51;;;;;;;40.70;12.15;;;;;;;;;;6260910;28;20292;-70
2023/09/29 17:58:56;;;;;;;27.45;10.60;;;;;;;;;;6260555;28;20295;-70
2023/09/29 18:02:00;;;;;;;29.38;9.57;;;;;;;;;;6275835;28;20310;-70
2023/09/29 18:05:04;;;;;;;18.33;7.97;;;;;;;;;;6260151;28;20292;-71
2023/09/29 18:08:10;;;;;;;23.02;6.97;;;;;;;;;;6260220;28;20314;-69
2023/09/29 18:11:15;;;;;;;21.15;6.53;;;;;;;;;;6260929;28;20300;-71